FW3145 Weather Reports


Display with metric or nautical units.
time (UTC)temp
F
wind
direction
speed
MPH
gust
MPH
rain 1hr
in
rain 24hr
in
rain mn
in
humidity
%
barometer
mb
20200410094545 64 141 0.0 0.0 0.00 0.00 0.00 48 1021.4
20200410093049 63 144 0.0 2.0 0.00 0.00 0.00 49 1021.6
20200410090049 60 151 0.0 2.0 0.00 0.00 0.00 60 1021.7
20200410084513 58 204 0.0 1.0 0.00 0.00 0.00 62 1021.8
20200410083005 57 183 0.0 1.0 0.00 0.00 0.00 63 1022.0
20200410081614 56 161 0.0 2.0 0.00 0.00 0.00 67 1022.1
20200410080444 54 188 0.0 0.0 0.00 0.00 0.00 68 1022.1
20200410074706 54 162 0.0 0.0 0.00 0.00 0.00 67 1022.1
20200410073140 52 184 0.0 0.0 0.00 0.00 0.00 70 1022.2
20200410071548 50 190 0.0 0.0 0.00 0.00 0.00 73 1022.2
20200410070147 50 286 0.0 0.0 0.00 0.00 0.00 78 1022.1
20200410064549 49 344 0.0 0.0 0.00 0.00 0.00 79 1022.1
20200410063130 48 343 0.0 0.0 0.00 0.00 0.00 84 1022.1
20200410061547 48 342 0.0 0.0 0.00 0.00 0.00 87 1022.0
20200410060124 46 342 0.0 0.0 0.00 0.00 0.00 92 1022.1
20200410054540 44 342 0.0 0.0 0.00 0.00 0.00 94 1022.1
20200410053010 41 342 0.0 0.0 0.00 0.00 0.00 94 1022.1
20200410051534 38 342 0.0 0.0 0.00 0.00 0.00 92 1021.9
20200410050008 38 342 0.0 0.0 0.00 0.00 0.00 92 1021.9
20200410044727 37 342 0.0 0.0 0.00 0.00 0.00 91 1021.8
20200410043217 37 342 0.0 0.0 0.00 0.00 0.00 91 1021.6
20200410041658 38 342 0.0 0.0 0.00 0.00 0.00 91 1021.5
20200410040227 38 342 0.0 0.0 0.00 0.00 0.00 90 1021.5
20200410034738 38 342 0.0 0.0 0.00 0.00 0.00 90 1021.5
20200410033135 38 342 0.0 0.0 0.00 0.00 0.00 90 1021.5
20200410031713 38 342 0.0 0.0 0.00 0.00 0.00 90 1021.5
20200410030217 38 342 0.0 0.0 0.00 0.00 0.00 90 1021.4
20200410024738 38 342 0.0 0.0 0.00 0.00 0.00 89 1021.5
20200410023221 39 342 0.0 0.0 0.00 0.00 0.00 90 1021.4
20200410021641 39 342 0.0 0.0 0.00 0.00 0.00 89 1021.4
20200410020125 39 342 0.0 0.0 0.00 0.00 0.00 90 1021.4
20200410014548 39 342 0.0 0.0 0.00 0.00 0.00 89 1021.4
20200410013158 39 342 0.0 0.0 0.00 0.00 0.00 88 1021.3
20200410011713 40 342 0.0 0.0 0.00 0.00 0.00 88 1021.3
20200410010139 41 342 0.0 0.0 0.00 0.00 0.00 88 1021.1
20200410004634 42 342 0.0 0.0 0.00 0.00 0.00 89 1021.3
20200410003059 41 342 0.0 0.0 0.00 0.00 0.00 88 1021.1
20200410001539 42 342 0.0 0.0 0.00 0.00 0.00 88 1021.1
20200410000052 42 341 0.0 1.0 0.00 0.00 0.00 88 1021.2
20200409234551 42 348 0.0 1.0 0.00 0.00 0.00 87 1021.2
20200409233142 42 348 0.0 0.0 0.00 0.00 0.00 87 1021.3
20200409231553 43 348 0.0 0.0 0.00 0.00 0.00 86 1021.4
20200409230101 43 348 0.0 0.0 0.00 0.00 0.00 86 1021.3
20200409224535 44 348 0.0 0.0 0.00 0.00 0.00 86 1021.4
20200409223111 44 348 0.0 0.0 0.00 0.00 0.00 85 1021.5
20200409221534 44 344 0.0 1.0 0.00 0.00 0.00 84 1021.5
20200409220133 44 325 1.0 2.0 0.00 0.00 0.00 83 1021.6
20200409214545 44 312 0.0 0.0 0.00 0.00 0.00 82 1021.5
20200409213110 44 312 0.0 0.0 0.00 0.00 0.00 81 1021.5
20200409211541 45 311 0.0 0.0 0.00 0.00 0.00 81 1021.5
20200409210109 45 311 0.0 0.0 0.00 0.00 0.00 80 1021.4
20200409204552 46 311 0.0 0.0 0.00 0.00 0.00 79 1021.4
20200409203101 46 311 0.0 0.0 0.00 0.00 0.00 78 1021.3
20200409201540 47 311 0.0 0.0 0.00 0.00 0.00 78 1021.1
20200409200131 48 311 0.0 0.0 0.00 0.00 0.00 78 1021.1
20200409194558 48 310 0.0 0.0 0.00 0.00 0.00 78 1021.0
20200409193040 49 337 0.0 0.0 0.00 0.00 0.00 78 1021.1
20200409191547 49 338 0.0 0.0 0.00 0.00 0.00 77 1021.0
20200409190017 49 329 0.0 0.0 0.00 0.00 0.00 75 1020.9
20200409184642 51 314 0.0 0.0 0.00 0.00 0.00 72 1020.6
20200409183033 52 71 0.0 0.0 0.00 0.00 0.00 70 1020.4
20200409181531 54 32 0.0 0.0 0.00 0.00 0.00 65 1020.2
20200409180029 56 75 0.0 0.0 0.00 0.00 0.00 62 1020.0
20200409174547 57 355 0.0 1.0 0.00 0.00 0.00 59 1019.8
20200409173019 59 311 0.0 2.0 0.00 0.00 0.00 55 1019.6
20200409171523 62 329 0.0 2.0 0.00 0.00 0.00 47 1019.4
20200409170015 63 229 0.0 3.0 0.00 0.00 0.00 44 1019.4
20200409164530 64 254 1.0 2.0 0.00 0.00 0.00 43 1019.3
20200409163044 65 253 1.0 3.0 0.00 0.00 0.00 43 1019.2
20200409161514 66 240 0.0 3.0 0.00 0.00 0.00 47 1019.1
20200409160020 66 255 1.0 3.0 0.00 0.00 0.00 44 1019.0
20200409154531 67 262 1.0 3.0 0.00 0.00 0.00 44 1018.8
20200409153015 68 240 1.0 4.0 0.00 0.00 0.00 42 1018.7
20200409151517 69 274 1.0 3.0 0.00 0.00 0.00 42 1018.7
20200409150014 69 267 1.0 3.0 0.00 0.00 0.00 38 1018.7
20200409144541 72 244 1.0 3.0 0.00 0.00 0.00 32 1018.8
20200409143004 71 181 0.0 2.0 0.00 0.00 0.00 28 1018.8
20200409141502 72 181 0.0 2.0 0.00 0.00 0.00 27 1018.9
20200409140142 72 197 0.0 2.0 0.00 0.00 0.00 26 1019.1
20200409134633 71 235 0.0 2.0 0.00 0.00 0.00 25 1019.2
20200409133125 71 107 0.0 2.0 0.00 0.00 0.00 24 1019.3
20200409131644 71 235 1.0 2.0 0.00 0.00 0.00 27 1019.4
20200409130145 70 140 0.0 2.0 0.00 0.00 0.00 28 1019.5
20200409124624 70 288 0.0 2.0 0.00 0.00 0.00 28 1019.7
20200409123123 70 155 0.0 2.0 0.00 0.00 0.00 27 1020.0
20200409121633 70 236 0.0 2.0 0.00 0.00 0.00 29 1020.1
20200409120132 69 117 0.0 2.0 0.00 0.00 0.00 29 1020.3
20200409114615 68 196 0.0 2.0 0.00 0.00 0.00 27 1020.5
20200409113041 68 133 1.0 2.0 0.00 0.00 0.00 28 1020.5
20200409111536 68 223 0.0 2.0 0.00 0.00 0.00 27 1020.7
20200409110056 67 247 0.0 0.0 0.00 0.00 0.00 28 1020.8
20200409104559 66 159 0.0 0.0 0.00 0.00 0.00 28 1021.0
20200409103023 66 150 0.0 1.0 0.00 0.00 0.00 31 1021.1
20200409101533 65 140 0.0 2.0 0.00 0.00 0.00 29 1021.3
20200409100044 65 53 0.0 0.0 0.00 0.00 0.00 32 1021.5